createdAt,value
2023-01-17T00:01:16.290Z,72.98
2023-01-17T00:04:06.428Z,73.12
2023-01-17T00:06:56.654Z,72.97
2023-01-17T00:09:46.558Z,73.95
2023-01-17T00:12:18.976Z,74.11
2023-01-17T00:14:52.892Z,73.32
2023-01-17T00:17:30.007Z,73.45
2023-01-17T00:20:20.328Z,74.10
2023-01-17T00:23:10.435Z,74.37
2023-01-17T00:26:00.775Z,73.81
2023-01-17T00:28:33.602Z,74.48
2023-01-17T00:31:06.846Z,74.08
2023-01-17T00:33:38.306Z,73.99
2023-01-17T00:36:10.987Z,74.25
2023-01-17T00:38:42.537Z,74.01
2023-01-17T00:41:15.316Z,73.42
2023-01-17T00:44:05.151Z,73.41
2023-01-17T00:46:55.310Z,73.84
2023-01-17T00:49:45.151Z,74.07
2023-01-17T00:52:35.274Z,74.32
2023-01-17T00:55:26.065Z,74.09
2023-01-17T00:58:16.379Z,74.20
2023-01-17T01:01:06.188Z,74.47
2023-01-17T01:03:56.415Z,74.03
2023-01-17T01:06:47.751Z,74.19
2023-01-17T01:09:37.777Z,74.04
2023-01-17T01:12:27.904Z,74.55
2023-01-17T01:15:17.705Z,75.02
2023-01-17T01:18:07.685Z,75.35
2023-01-17T01:20:57.762Z,75.62
2023-01-17T01:23:47.831Z,75.37
2023-01-17T01:26:37.524Z,75.80
2023-01-17T01:29:27.455Z,75.57
2023-01-17T01:32:19.981Z,75.81
2023-01-17T01:34:52.839Z,75.58
2023-01-17T01:37:25.494Z,75.51
2023-01-17T01:39:57.988Z,75.35
2023-01-17T01:42:30.449Z,75.12
2023-01-17T01:45:02.811Z,74.97
2023-01-17T01:47:40.806Z,75.25
2023-01-17T01:50:15.427Z,75.24
2023-01-17T01:52:51.497Z,75.32
2023-01-17T01:55:30.118Z,75.54
2023-01-17T01:58:09.826Z,75.19
2023-01-17T02:00:43.376Z,74.93
2023-01-17T02:03:19.618Z,74.97
2023-01-17T02:05:52.135Z,74.89
2023-01-17T02:08:25.993Z,75.03
2023-01-17T02:10:59.560Z,75.67
2023-01-17T02:13:32.590Z,75.29
2023-01-17T02:16:15.349Z,75.12
2023-01-17T02:19:01.166Z,75.23
2023-01-17T02:21:37.825Z,75.12
2023-01-17T02:24:58.132Z,74.95
2023-01-17T02:27:39.500Z,74.80
2023-01-17T02:30:29.788Z,74.57
2023-01-17T02:33:13.371Z,74.25
2023-01-17T02:35:56.319Z,73.95
2023-01-17T02:38:38.239Z,73.96
2023-01-17T02:41:17.050Z,74.27
2023-01-17T02:43:52.284Z,74.60
2023-01-17T02:46:24.672Z,74.71
2023-01-17T02:48:58.975Z,74.81
2023-01-17T02:51:47.428Z,75.61
2023-01-17T02:54:47.177Z,75.66
2023-01-17T02:57:40.586Z,75.58
2023-01-17T03:00:22.421Z,75.95
2023-01-17T03:03:03.829Z,76.22
2023-01-17T03:05:42.644Z,76.36
2023-01-17T03:08:17.085Z,76.05
2023-01-17T03:10:49.708Z,76.65
2023-01-17T03:13:22.583Z,77.03
2023-01-17T03:15:55.028Z,77.24
2023-01-17T03:18:27.545Z,77.91
2023-01-17T03:20:59.953Z,77.49
2023-01-17T03:23:32.337Z,77.08
2023-01-17T03:26:04.970Z,76.57
2023-01-17T03:28:37.595Z,76.29
2023-01-17T03:31:10.647Z,76.37
2023-01-17T03:33:43.001Z,76.48
2023-01-17T03:36:15.512Z,77.02
2023-01-17T03:38:48.104Z,76.93
2023-01-17T03:41:20.668Z,76.89
2023-01-17T03:43:53.180Z,76.33
2023-01-17T03:46:27.691Z,76.22
2023-01-17T03:49:00.301Z,76.18
2023-01-17T03:51:32.669Z,76.35
2023-01-17T03:54:05.208Z,76.57
2023-01-17T03:56:37.551Z,77.00
2023-01-17T03:59:12.229Z,77.04
2023-01-17T04:01:45.491Z,76.79
2023-01-17T04:04:17.937Z,77.03
2023-01-17T04:06:50.400Z,76.67
2023-01-17T04:09:23.158Z,76.18
2023-01-17T04:11:55.632Z,76.15
2023-01-17T04:14:28.292Z,76.41
2023-01-17T04:17:01.444Z,76.11
2023-01-17T04:19:35.244Z,75.87
2023-01-17T04:22:07.783Z,75.71
2023-01-17T04:24:40.133Z,75.42
2023-01-17T04:27:14.441Z,75.30
2023-01-17T04:29:47.048Z,75.16
2023-01-17T04:32:19.588Z,75.06
2023-01-17T04:34:52.062Z,75.11
2023-01-17T04:37:24.901Z,74.94
2023-01-17T04:39:57.479Z,75.36
2023-01-17T04:42:30.311Z,75.19
2023-01-17T04:45:03.083Z,75.17
2023-01-17T04:47:35.973Z,75.20
2023-01-17T04:50:09.715Z,75.17
2023-01-17T04:52:42.093Z,75.46
2023-01-17T04:55:14.886Z,75.16
2023-01-17T04:57:48.548Z,74.94
2023-01-17T05:00:24.304Z,74.75
2023-01-17T05:02:56.916Z,74.38
2023-01-17T05:05:29.410Z,73.89
2023-01-17T05:08:01.851Z,73.92
2023-01-17T05:10:34.510Z,74.06
2023-01-17T05:13:07.052Z,73.95
2023-01-17T05:15:40.185Z,73.55
2023-01-17T05:18:15.442Z,73.25
2023-01-17T05:20:47.915Z,73.23
2023-01-17T05:23:20.609Z,73.25
2023-01-17T05:25:53.022Z,72.89
2023-01-17T05:28:25.640Z,72.94
2023-01-17T05:30:58.200Z,72.63
2023-01-17T05:33:30.793Z,72.92
2023-01-17T05:36:03.753Z,72.45
2023-01-17T05:38:36.137Z,72.31
2023-01-17T05:41:09.001Z,72.41
2023-01-17T05:43:41.430Z,72.40
2023-01-17T05:46:16.180Z,72.41
2023-01-17T05:48:46.954Z,72.44
2023-01-17T05:51:19.693Z,72.55
2023-01-17T05:53:52.072Z,72.57
2023-01-17T05:56:24.596Z,72.83
2023-01-17T05:58:57.004Z,72.72
2023-01-17T06:01:29.632Z,72.17
2023-01-17T06:04:01.986Z,71.96
2023-01-17T06:06:34.395Z,71.76
2023-01-17T06:09:07.141Z,71.87
2023-01-17T06:11:42.828Z,71.86
2023-01-17T06:14:15.467Z,71.56
2023-01-17T06:16:48.054Z,71.47
2023-01-17T06:19:20.509Z,71.42
2023-01-17T06:21:53.017Z,71.49
2023-01-17T06:24:25.439Z,71.05
2023-01-17T06:26:57.952Z,70.79
2023-01-17T06:29:30.455Z,71.14
2023-01-17T06:32:03.113Z,70.96
2023-01-17T06:34:35.490Z,70.99
2023-01-17T06:37:08.062Z,71.03
2023-01-17T06:39:40.460Z,71.13
2023-01-17T06:42:13.682Z,71.46
2023-01-17T06:44:46.167Z,71.05
2023-01-17T06:47:18.712Z,71.36
2023-01-17T06:49:51.221Z,70.94
2023-01-17T06:52:23.956Z,70.43
2023-01-17T06:54:56.815Z,70.54
2023-01-17T06:57:29.518Z,70.35
2023-01-17T07:00:02.489Z,70.65
2023-01-17T07:02:34.912Z,70.44
2023-01-17T07:05:10.045Z,70.29
2023-01-17T07:07:40.815Z,70.68
2023-01-17T07:10:15.033Z,70.47
2023-01-17T07:12:47.867Z,70.39
2023-01-17T07:15:21.008Z,70.23
2023-01-17T07:17:53.800Z,70.16
2023-01-17T07:20:26.231Z,70.18
2023-01-17T07:22:59.003Z,69.73
2023-01-17T07:25:31.430Z,69.76
2023-01-17T07:28:03.939Z,69.89
2023-01-17T07:30:36.769Z,69.66
2023-01-17T07:33:09.993Z,69.68
2023-01-17T07:35:43.176Z,69.90
2023-01-17T07:38:18.325Z,69.78
2023-01-17T07:40:50.741Z,69.47
2023-01-17T07:43:23.784Z,69.28
2023-01-17T07:45:56.429Z,69.32
2023-01-17T07:48:29.286Z,69.74
2023-01-17T07:51:01.766Z,69.65
2023-01-17T07:53:35.853Z,69.83
2023-01-17T07:56:09.977Z,69.89
2023-01-17T07:58:43.007Z,69.68
2023-01-17T08:01:16.823Z,69.71
2023-01-17T08:03:53.431Z,69.95
2023-01-17T08:06:27.752Z,69.90
2023-01-17T08:09:00.161Z,70.31
2023-01-17T08:11:32.775Z,70.22
2023-01-17T08:14:05.936Z,70.14
2023-01-17T08:16:40.257Z,69.73
2023-01-17T08:19:12.954Z,69.57
2023-01-17T08:21:45.564Z,69.82
2023-01-17T08:24:18.063Z,69.39
2023-01-17T08:26:50.692Z,69.24
2023-01-17T08:29:23.811Z,69.32
2023-01-17T08:31:56.296Z,69.37
2023-01-17T08:34:28.936Z,69.33
2023-01-17T08:37:01.281Z,69.73
2023-01-17T08:39:33.804Z,69.82
2023-01-17T08:42:06.248Z,69.52
2023-01-17T08:44:39.937Z,69.35
2023-01-17T08:47:12.464Z,69.71
2023-01-17T08:49:45.378Z,69.57
2023-01-17T08:52:17.813Z,69.57
2023-01-17T08:54:50.399Z,69.59
2023-01-17T08:57:23.384Z,70.00
2023-01-17T08:59:59.351Z,70.23
2023-01-17T09:02:32.032Z,70.05
2023-01-17T09:05:04.682Z,69.58
2023-01-17T09:07:37.128Z,69.58
2023-01-17T09:10:10.856Z,69.38
2023-01-17T09:12:43.243Z,69.52
2023-01-17T09:15:20.330Z,69.91
2023-01-17T09:17:56.010Z,69.23
2023-01-17T09:20:30.988Z,68.91
2023-01-17T09:23:04.946Z,69.31
2023-01-17T09:25:37.417Z,69.14
2023-01-17T09:28:09.895Z,69.15
2023-01-17T09:30:42.453Z,69.34
2023-01-17T09:33:14.851Z,69.35
2023-01-17T09:35:47.791Z,69.26
2023-01-17T09:38:21.795Z,69.76
2023-01-17T09:40:54.235Z,70.20
2023-01-17T09:43:35.451Z,69.68
2023-01-17T09:46:18.815Z,69.68
2023-01-17T09:48:54.683Z,69.51
2023-01-17T09:51:27.316Z,69.21
2023-01-17T09:54:00.326Z,69.31
2023-01-17T09:56:38.027Z,69.31
2023-01-17T09:59:32.732Z,69.16
2023-01-17T10:02:26.170Z,68.99
2023-01-17T10:05:27.841Z,68.51
2023-01-17T10:08:16.909Z,68.54
2023-01-17T10:11:05.174Z,68.48
2023-01-17T10:13:47.302Z,68.81
2023-01-17T10:16:32.371Z,68.87
2023-01-17T10:19:28.409Z,68.37
2023-01-17T10:22:12.124Z,68.03
2023-01-17T10:25:25.117Z,67.66
2023-01-17T10:28:00.350Z,67.52
2023-01-17T10:30:40.308Z,67.41
2023-01-17T10:33:19.301Z,66.84
2023-01-17T10:36:04.366Z,66.56
2023-01-17T10:38:41.734Z,67.23
2023-01-17T10:41:23.088Z,67.83
2023-01-17T10:44:07.973Z,67.05
2023-01-17T10:46:44.489Z,66.43
2023-01-17T10:49:21.346Z,66.73
2023-01-17T10:52:19.366Z,66.43
2023-01-17T10:55:05.281Z,66.06
2023-01-17T10:57:43.323Z,66.09
2023-01-17T11:00:34.258Z,65.58
2023-01-17T11:03:07.667Z,65.80
2023-01-17T11:05:43.268Z,66.02
2023-01-17T11:08:17.850Z,65.36
2023-01-17T11:10:54.502Z,65.40
2023-01-17T11:13:31.043Z,65.20
2023-01-17T11:16:07.684Z,65.16
2023-01-17T11:18:41.855Z,65.07
2023-01-17T11:21:18.523Z,65.11
2023-01-17T11:23:54.942Z,65.47
2023-01-17T11:26:29.621Z,65.23
2023-01-17T11:29:35.828Z,65.12
2023-01-17T11:32:34.234Z,65.33
2023-01-17T11:35:19.052Z,64.81
2023-01-17T11:37:53.717Z,64.95
2023-01-17T11:40:27.123Z,64.90
2023-01-17T11:43:22.084Z,64.51
2023-01-17T11:46:15.864Z,65.01
2023-01-17T11:48:55.962Z,64.78
2023-01-17T11:51:32.714Z,65.10
2023-01-17T11:54:18.253Z,64.65
2023-01-17T11:56:51.939Z,64.13
2023-01-17T11:59:28.748Z,64.28
2023-01-17T12:02:33.670Z,64.21
2023-01-17T12:05:29.279Z,63.39
2023-01-17T12:08:11.004Z,63.67
2023-01-17T12:10:52.320Z,63.48
2023-01-17T12:13:53.411Z,63.38
2023-01-17T12:16:36.981Z,63.89
2023-01-17T12:19:26.218Z,64.50
2023-01-17T12:22:12.934Z,64.87
2023-01-17T12:25:03.956Z,64.93
2023-01-17T12:27:45.495Z,64.28
2023-01-17T12:30:30.836Z,64.25
2023-01-17T12:33:19.164Z,63.07
2023-01-17T12:35:57.178Z,62.06
2023-01-17T12:38:36.008Z,62.22
2023-01-17T12:41:15.322Z,62.14
2023-01-17T12:43:48.102Z,62.48
2023-01-17T12:46:28.413Z,61.57
2023-01-17T12:49:04.778Z,61.18
2023-01-17T12:51:42.998Z,61.07
2023-01-17T12:54:25.389Z,60.65
2023-01-17T12:57:04.059Z,61.03
2023-01-17T12:59:43.801Z,60.88
2023-01-17T13:02:24.984Z,60.99
2023-01-17T13:05:05.400Z,60.80
2023-01-17T13:07:45.415Z,60.30
2023-01-17T13:10:35.558Z,60.06
2023-01-17T13:13:22.564Z,59.84
2023-01-17T13:15:59.078Z,59.99
2023-01-17T13:18:33.438Z,59.78
2023-01-17T13:21:31.345Z,59.39
2023-01-17T13:24:33.740Z,59.86
2023-01-17T13:27:35.088Z,60.82
2023-01-17T13:30:33.051Z,61.27
2023-01-17T13:33:29.764Z,60.86
2023-01-17T13:36:18.136Z,61.09
2023-01-17T13:39:02.207Z,61.23
2023-01-17T13:41:51.521Z,61.17
2023-01-17T13:44:30.194Z,61.35
2023-01-17T13:47:04.683Z,61.55
2023-01-17T13:49:48.593Z,61.89
2023-01-17T13:52:34.099Z,62.17
2023-01-17T13:55:08.610Z,61.83
2023-01-17T13:57:44.938Z,62.22
2023-01-17T14:00:55.132Z,62.77
2023-01-17T14:04:06.643Z,64.93
2023-01-17T14:06:45.428Z,65.14
2023-01-17T14:09:24.854Z,65.42
2023-01-17T14:12:01.085Z,65.49
2023-01-17T14:14:52.200Z,65.99
2023-01-17T14:17:49.129Z,66.46
2023-01-17T14:20:51.181Z,67.42
2023-01-17T14:23:52.629Z,66.97
2023-01-17T14:26:58.953Z,66.18
2023-01-17T14:29:50.972Z,66.12
2023-01-17T14:32:27.303Z,65.57
2023-01-17T14:35:00.529Z,65.42
2023-01-17T14:37:43.438Z,65.75
2023-01-17T14:40:21.866Z,65.11
2023-01-17T14:43:00.726Z,64.86
2023-01-17T14:45:35.134Z,64.58
2023-01-17T14:48:15.845Z,64.45
2023-01-17T14:50:49.903Z,64.61
2023-01-17T14:53:28.335Z,64.33
2023-01-17T14:56:03.377Z,64.09
2023-01-17T14:58:37.675Z,63.88
2023-01-17T15:01:14.863Z,63.74
2023-01-17T15:03:51.049Z,63.27
2023-01-17T15:06:26.310Z,62.76
2023-01-17T15:09:01.104Z,62.48
2023-01-17T15:11:37.361Z,62.72
2023-01-17T15:14:14.455Z,62.44
2023-01-17T15:16:46.936Z,62.54
2023-01-17T15:19:20.328Z,62.58
2023-01-17T15:21:55.043Z,62.77
2023-01-17T15:24:34.543Z,62.63
2023-01-17T15:27:08.070Z,62.53
2023-01-17T15:29:43.208Z,62.41
2023-01-17T15:32:24.196Z,62.67
2023-01-17T15:34:57.272Z,62.65
2023-01-17T15:37:34.097Z,62.64
2023-01-17T15:40:18.824Z,62.61
2023-01-17T15:42:56.636Z,62.52
2023-01-17T15:45:31.875Z,62.73
2023-01-17T15:48:34.785Z,62.73
2023-01-17T15:51:07.923Z,62.91
2023-01-17T15:53:43.352Z,63.14
2023-01-17T15:56:30.999Z,63.21
2023-01-17T15:59:30.582Z,63.31
2023-01-17T16:02:03.562Z,63.33
2023-01-17T16:04:37.802Z,63.68
2023-01-17T16:07:20.437Z,63.58
2023-01-17T16:09:53.002Z,63.65
2023-01-17T16:12:25.480Z,63.81
2023-01-17T16:15:11.258Z,63.75
2023-01-17T16:17:46.788Z,63.37
2023-01-17T16:20:22.697Z,63.47
2023-01-17T16:22:55.208Z,63.24
2023-01-17T16:25:32.362Z,63.21
2023-01-17T16:28:05.564Z,63.32
2023-01-17T16:30:38.553Z,63.02
2023-01-17T16:33:14.551Z,62.96
2023-01-17T16:35:47.132Z,62.66
2023-01-17T16:38:20.594Z,62.59
2023-01-17T16:40:53.256Z,62.40
2023-01-17T16:43:25.866Z,62.52
2023-01-17T16:45:58.362Z,62.38
2023-01-17T16:48:30.880Z,62.08
2023-01-17T16:51:08.793Z,62.04
2023-01-17T16:53:41.509Z,61.91
2023-01-17T16:56:17.083Z,61.89
2023-01-17T16:58:49.652Z,62.11
2023-01-17T17:01:22.938Z,62.21
2023-01-17T17:03:55.830Z,62.31
2023-01-17T17:06:28.268Z,62.03
2023-01-17T17:09:01.636Z,61.96
2023-01-17T17:11:34.271Z,62.17
2023-01-17T17:14:08.337Z,62.34
2023-01-17T17:16:40.746Z,62.39
2023-01-17T17:19:13.747Z,62.35
2023-01-17T17:21:46.517Z,62.23
2023-01-17T17:24:19.483Z,62.24
2023-01-17T17:26:52.067Z,62.94
2023-01-17T17:29:24.664Z,63.47
2023-01-17T17:31:57.142Z,63.15
2023-01-17T17:34:31.961Z,62.79
2023-01-17T17:37:04.452Z,62.81
2023-01-17T17:39:37.061Z,62.85
2023-01-17T17:42:09.458Z,63.04
2023-01-17T17:44:42.087Z,62.73
2023-01-17T17:47:16.152Z,62.62
2023-01-17T17:49:48.795Z,62.59
2023-01-17T17:52:21.447Z,62.43
2023-01-17T17:54:54.006Z,62.43
2023-01-17T17:57:27.116Z,62.95
2023-01-17T18:00:02.162Z,62.80
2023-01-17T18:02:39.278Z,62.52
2023-01-17T18:05:15.145Z,62.36
2023-01-17T18:07:49.342Z,62.44
2023-01-17T18:10:25.823Z,62.02
2023-01-17T18:13:01.340Z,61.69
2023-01-17T18:15:34.486Z,61.69
2023-01-17T18:18:08.326Z,61.89
2023-01-17T18:20:45.245Z,61.86
2023-01-17T18:23:17.618Z,62.40
2023-01-17T18:25:51.191Z,61.96
2023-01-17T18:28:23.745Z,61.88
2023-01-17T18:30:56.552Z,61.99
2023-01-17T18:33:45.156Z,61.99
2023-01-17T18:36:29.312Z,62.24
2023-01-17T18:39:02.097Z,62.27
2023-01-17T18:41:51.758Z,62.28
2023-01-17T18:44:33.252Z,62.07
2023-01-17T18:47:11.050Z,61.80
2023-01-17T18:49:43.442Z,61.88
2023-01-17T18:52:17.759Z,61.85
2023-01-17T18:54:50.171Z,62.16
2023-01-17T19:00:51.446Z,62.31
2023-01-17T19:03:31.671Z,62.27
2023-01-17T19:06:13.774Z,62.08
2023-01-17T19:08:59.379Z,62.67
2023-01-17T19:11:38.206Z,62.93
2023-01-17T19:14:11.910Z,62.96
2023-01-17T19:16:45.059Z,62.94
2023-01-17T19:19:50.121Z,62.96
2023-01-17T19:22:24.180Z,63.24
2023-01-17T19:24:56.746Z,63.41
2023-01-17T19:27:32.349Z,63.27
2023-01-17T19:30:05.481Z,63.29
2023-01-17T19:32:39.252Z,63.29
2023-01-17T19:35:17.669Z,63.26
2023-01-17T19:37:53.401Z,63.18
2023-01-17T19:40:27.048Z,63.08
2023-01-17T19:43:09.902Z,62.91
2023-01-17T19:46:18.834Z,63.21
2023-01-17T19:49:00.206Z,63.31
2023-01-17T19:51:32.862Z,63.26
2023-01-17T19:54:06.595Z,63.18
2023-01-17T19:56:39.471Z,63.17
2023-01-17T19:59:20.287Z,63.23
2023-01-17T20:02:02.525Z,63.13
2023-01-17T20:04:44.273Z,63.27
2023-01-17T20:07:17.307Z,63.43
2023-01-17T20:09:49.803Z,63.10
2023-01-17T20:12:22.803Z,63.31
2023-01-17T20:14:55.596Z,63.07
2023-01-17T20:17:28.281Z,62.66
2023-01-17T20:20:00.870Z,62.33
2023-01-17T20:22:33.709Z,62.15
2023-01-17T20:25:07.598Z,62.09
2023-01-17T20:27:40.932Z,62.10
2023-01-17T20:30:20.495Z,62.04
2023-01-17T20:32:53.709Z,61.98
2023-01-17T20:35:28.570Z,61.98
2023-01-17T20:38:01.069Z,62.10
2023-01-17T20:40:33.420Z,62.08
2023-01-17T20:43:06.351Z,62.16
2023-01-17T20:45:39.225Z,62.03
2023-01-17T20:48:12.328Z,62.01
2023-01-17T20:50:44.981Z,62.01
2023-01-17T20:53:19.428Z,62.14
2023-01-17T20:55:58.417Z,62.48
2023-01-17T20:58:31.485Z,62.50
2023-01-17T21:01:04.478Z,62.45
2023-01-17T21:03:38.912Z,62.40
2023-01-17T21:06:13.810Z,62.07
2023-01-17T21:08:48.476Z,61.92
2023-01-17T21:11:22.594Z,62.03
2023-01-17T21:13:56.525Z,62.03
2023-01-17T21:16:29.749Z,61.98
2023-01-17T21:19:02.802Z,61.90
2023-01-17T21:21:35.301Z,62.03
2023-01-17T21:24:09.867Z,62.22
2023-01-17T21:26:44.464Z,62.47
2023-01-17T21:29:17.027Z,62.53
2023-01-17T21:31:49.708Z,62.43
2023-01-17T21:34:24.579Z,62.40
2023-01-17T21:36:57.811Z,62.53
2023-01-17T21:39:31.657Z,62.38
2023-01-17T21:42:04.052Z,62.50
2023-01-17T21:44:38.042Z,62.36
2023-01-17T21:47:10.658Z,62.43
2023-01-17T21:49:43.264Z,62.69
2023-01-17T21:52:21.793Z,62.62
2023-01-17T21:55:14.361Z,62.86
2023-01-17T21:58:04.446Z,63.10
2023-01-17T22:00:37.090Z,63.11
2023-01-17T22:03:09.598Z,63.41
2023-01-17T22:05:42.074Z,63.70
2023-01-17T22:08:17.772Z,63.53
2023-01-17T22:10:50.327Z,63.37
2023-01-17T22:13:22.793Z,63.53
2023-01-17T22:16:02.896Z,63.68
2023-01-17T22:18:38.354Z,63.87
2023-01-17T22:21:14.528Z,64.04
2023-01-17T22:23:50.168Z,64.01
2023-01-17T22:26:24.539Z,64.29
2023-01-17T22:29:00.596Z,64.22
2023-01-17T22:31:33.642Z,64.41
2023-01-17T22:34:07.007Z,64.58
2023-01-17T22:36:40.729Z,64.30
2023-01-17T22:39:13.878Z,64.54
2023-01-17T22:41:46.482Z,64.55
2023-01-17T22:44:18.907Z,64.65
2023-01-17T22:46:51.591Z,64.72
2023-01-17T22:49:24.617Z,64.70
2023-01-17T22:51:57.352Z,64.55
2023-01-17T22:54:29.878Z,64.76
2023-01-17T22:57:02.399Z,64.45
2023-01-17T22:59:35.415Z,64.17
2023-01-17T23:02:08.314Z,63.81
2023-01-17T23:04:40.839Z,63.88
2023-01-17T23:07:13.541Z,63.63
2023-01-17T23:09:46.040Z,63.48
2023-01-17T23:12:18.925Z,63.55
2023-01-17T23:15:08.809Z,63.34
2023-01-17T23:18:00.057Z,63.16
2023-01-17T23:20:32.706Z,63.19
2023-01-17T23:23:05.325Z,62.97
2023-01-17T23:25:37.761Z,63.12
2023-01-17T23:28:20.684Z,63.22
2023-01-17T23:30:53.214Z,63.47
2023-01-17T23:33:25.909Z,63.48
2023-01-17T23:35:58.327Z,63.43
2023-01-17T23:38:30.931Z,63.42
2023-01-17T23:41:19.355Z,63.41
2023-01-17T23:43:55.170Z,63.22
2023-01-17T23:46:30.226Z,63.27
2023-01-17T23:49:03.803Z,63.25
2023-01-17T23:51:36.254Z,63.34
2023-01-17T23:54:08.886Z,63.30
2023-01-17T23:56:41.276Z,63.42
2023-01-17T23:59:14.020Z,63.56
